Time;durP1;ratioP1;P1;durP2;ratioP2;P2;SDS_P1;SDS_P2;PMS_P1;PMS_P2;Temp;Humidity;BMP_temperature;BMP_pressure;BME280_temperature;BME280_humidity;BME280_pressure;Samples;Min_cycle;Max_cycle;Signal;HPM_P1;HPM_P2
2022/06/11 00:01:12;;;;;;;5.05;2.92;;;;;;;;;;4951175;28;20473;-88
2022/06/11 00:03:38;;;;;;;5.47;3.15;;;;;;;;;;4954444;28;20023;-87
2022/06/11 00:06:05;;;;;;;9.57;3.40;;;;;;;;;;4955380;28;20034;-87
2022/06/11 00:08:31;;;;;;;7.72;3.10;;;;;;;;;;4955037;28;20477;-88
2022/06/11 00:10:57;;;;;;;9.30;3.38;;;;;;;;;;4955107;28;20501;-88
2022/06/11 00:13:24;;;;;;;5.90;2.90;;;;;;;;;;4955323;28;20469;-88
2022/06/11 00:15:51;;;;;;;8.30;3.33;;;;;;;;;;4955052;28;20078;-87
2022/06/11 00:18:18;;;;;;;9.45;3.25;;;;;;;;;;4955019;28;20378;-86
2022/06/11 00:20:44;;;;;;;7.32;3.42;;;;;;;;;;4953364;28;20027;-87
2022/06/11 00:23:10;;;;;;;7.35;3.38;;;;;;;;;;4954073;28;20027;-88
2022/06/11 00:25:36;;;;;;;4.95;3.05;;;;;;;;;;4953984;28;20024;-89
2022/06/11 00:28:03;;;;;;;7.10;2.88;;;;;;;;;;4955429;28;20454;-89
2022/06/11 00:30:29;;;;;;;9.13;3.22;;;;;;;;;;4953511;28;20134;-88
2022/06/11 00:32:55;;;;;;;14.48;6.18;;;;;;;;;;4953663;28;20082;-89
2022/06/11 00:35:22;;;;;;;6.90;3.78;;;;;;;;;;4954654;28;20030;-87
2022/06/11 00:37:48;;;;;;;12.80;3.67;;;;;;;;;;4953529;28;20038;-89
2022/06/11 00:40:18;;;;;;;8.65;3.30;;;;;;;;;;4940797;28;20482;-89
2022/06/11 00:42:44;;;;;;;6.20;3.50;;;;;;;;;;4936016;29;20042;-88
2022/06/11 00:45:13;;;;;;;6.43;3.33;;;;;;;;;;4940173;29;20052;-88
2022/06/11 00:47:40;;;;;;;9.15;3.60;;;;;;;;;;4936007;29;20047;-88
2022/06/11 00:50:16;;;;;;;6.50;3.63;;;;;;;;;;4942511;29;20450;-88
2022/06/11 00:52:44;;;;;;;6.30;3.35;;;;;;;;;;4954872;28;20027;-87
2022/06/11 00:55:14;;;;;;;5.00;3.33;;;;;;;;;;4954586;28;20095;-88
2022/06/11 00:57:45;;;;;;;9.23;3.65;;;;;;;;;;4954817;28;20045;-86
2022/06/11 01:00:15;;;;;;;6.65;3.72;;;;;;;;;;4954345;28;20500;-88
2022/06/11 01:02:42;;;;;;;12.73;3.30;;;;;;;;;;4955063;28;20023;-87
2022/06/11 01:05:08;;;;;;;10.27;3.40;;;;;;;;;;4953268;28;20545;-89
2022/06/11 01:07:53;;;;;;;8.18;3.85;;;;;;;;;;4953355;28;20118;-87
2022/06/11 01:10:38;;;;;;;5.38;3.40;;;;;;;;;;4953365;28;20493;-89
2022/06/11 01:13:18;;;;;;;6.70;3.55;;;;;;;;;;4954867;28;20038;-89
2022/06/11 01:15:52;;;;;;;11.47;3.93;;;;;;;;;;4957101;28;20023;-89
2022/06/11 01:18:38;;;;;;;6.38;3.35;;;;;;;;;;4957963;28;20769;-88
2022/06/11 01:21:10;;;;;;;6.95;3.08;;;;;;;;;;4937660;29;20375;-89
2022/06/11 01:23:39;;;;;;;5.57;2.97;;;;;;;;;;4937950;29;20027;-89
2022/06/11 01:26:24;;;;;;;3.67;3.10;;;;;;;;;;4939036;29;20111;-88
2022/06/11 01:29:02;;;;;;;4.78;3.60;;;;;;;;;;4941386;29;20098;-89
2022/06/11 01:31:33;;;;;;;5.80;3.72;;;;;;;;;;4958074;28;20024;-88
2022/06/11 01:34:05;;;;;;;8.80;3.83;;;;;;;;;;4956462;28;20546;-88
2022/06/11 01:36:34;;;;;;;8.77;3.95;;;;;;;;;;4956572;28;20098;-87
2022/06/11 01:39:07;;;;;;;7.70;3.95;;;;;;;;;;4957963;28;20118;-87
2022/06/11 01:41:33;;;;;;;7.72;4.25;;;;;;;;;;4938506;29;20027;-88
2022/06/11 01:44:01;;;;;;;9.35;4.20;;;;;;;;;;4948637;29;20091;-88
2022/06/11 01:46:35;;;;;;;10.25;4.20;;;;;;;;;;4958176;28;20050;-88
2022/06/11 01:49:06;;;;;;;8.98;4.43;;;;;;;;;;4958201;28;20508;-87
2022/06/11 01:51:35;;;;;;;10.35;4.15;;;;;;;;;;4958180;28;20471;-89
2022/06/11 01:54:10;;;;;;;6.22;4.32;;;;;;;;;;4953635;28;20019;-88
2022/06/11 01:56:55;;;;;;;9.45;4.22;;;;;;;;;;4937061;29;20507;-87
2022/06/11 01:59:27;;;;;;;9.45;4.18;;;;;;;;;;4954249;29;20032;-86
2022/06/11 02:01:59;;;;;;;7.07;4.00;;;;;;;;;;4955973;28;20059;-86
2022/06/11 02:04:48;;;;;;;7.47;4.20;;;;;;;;;;4956402;28;20031;-88
2022/06/11 02:07:33;;;;;;;5.60;3.88;;;;;;;;;;4956713;29;20032;-88
2022/06/11 02:09:59;;;;;;;10.00;4.00;;;;;;;;;;4957804;28;20038;-87
2022/06/11 02:12:44;;;;;;;7.25;3.67;;;;;;;;;;4952323;28;20402;-89
2022/06/11 02:15:16;;;;;;;8.13;4.55;;;;;;;;;;4937055;29;20123;-88
2022/06/11 02:17:44;;;;;;;4.50;3.20;;;;;;;;;;4938618;29;20085;-88
2022/06/11 02:20:12;;;;;;;4.85;3.53;;;;;;;;;;4937007;29;20537;-87
2022/06/11 02:22:44;;;;;;;5.00;3.50;;;;;;;;;;4937146;29;20032;-88
2022/06/11 02:25:25;;;;;;;8.68;3.83;;;;;;;;;;4935719;29;20024;-88
2022/06/11 02:27:53;;;;;;;9.75;4.03;;;;;;;;;;4936984;29;20027;-88
2022/06/11 02:30:21;;;;;;;8.27;4.03;;;;;;;;;;4943782;29;20036;-88
2022/06/11 02:32:48;;;;;;;6.75;3.70;;;;;;;;;;4936771;29;20154;-89
2022/06/11 02:35:14;;;;;;;10.80;4.13;;;;;;;;;;4938205;29;20028;-88
2022/06/11 02:37:42;;;;;;;5.43;3.40;;;;;;;;;;4938147;29;20435;-88
2022/06/11 02:40:15;;;;;;;7.75;3.67;;;;;;;;;;4938063;29;20426;-87
2022/06/11 02:42:41;;;;;;;5.25;3.45;;;;;;;;;;4937960;29;20027;-88
2022/06/11 02:45:10;;;;;;;8.35;3.80;;;;;;;;;;4937628;29;20107;-89
2022/06/11 02:47:37;;;;;;;8.00;4.30;;;;;;;;;;4937488;29;20099;-89
2022/06/11 02:50:09;;;;;;;5.95;3.40;;;;;;;;;;4936555;29;20087;-89
2022/06/11 02:52:38;;;;;;;7.47;4.05;;;;;;;;;;4936496;29;20032;-88
2022/06/11 02:55:04;;;;;;;6.88;3.97;;;;;;;;;;4936252;29;21632;-89
2022/06/11 02:57:31;;;;;;;6.32;3.58;;;;;;;;;;4934879;29;20023;-89
2022/06/11 02:59:58;;;;;;;7.57;3.78;;;;;;;;;;4950002;29;20097;-88
2022/06/11 03:02:24;;;;;;;7.40;3.60;;;;;;;;;;4955059;28;20019;-88
2022/06/11 03:04:51;;;;;;;6.47;3.83;;;;;;;;;;4956676;28;20027;-88
2022/06/11 03:07:17;;;;;;;9.45;3.80;;;;;;;;;;4955350;28;20050;-91
2022/06/11 03:09:43;;;;;;;6.80;3.88;;;;;;;;;;4955970;28;20068;-89
2022/06/11 03:12:10;;;;;;;6.20;3.20;;;;;;;;;;4955913;28;20548;-89
2022/06/11 03:14:37;;;;;;;7.93;3.75;;;;;;;;;;4949320;28;20027;-88
2022/06/11 03:17:03;;;;;;;10.23;4.32;;;;;;;;;;4936540;29;20038;-88
2022/06/11 03:19:29;;;;;;;7.25;4.20;;;;;;;;;;4953814;28;20489;-89
2022/06/11 03:21:56;;;;;;;6.47;3.90;;;;;;;;;;4954722;28;20441;-88
2022/06/11 03:24:22;;;;;;;5.65;3.75;;;;;;;;;;4951401;28;20078;-88
2022/06/11 03:26:49;;;;;;;5.25;3.60;;;;;;;;;;4935252;29;20115;-88
2022/06/11 03:29:15;;;;;;;8.05;3.85;;;;;;;;;;4937115;29;20103;-88
2022/06/11 03:31:42;;;;;;;8.10;3.47;;;;;;;;;;4936145;29;20050;-90
2022/06/11 03:34:08;;;;;;;4.88;3.55;;;;;;;;;;4936271;29;20037;-90
2022/06/11 03:36:34;;;;;;;6.97;3.55;;;;;;;;;;4936947;29;20401;-90
2022/06/11 03:39:01;;;;;;;7.72;3.40;;;;;;;;;;4937697;29;20134;-89
2022/06/11 03:41:27;;;;;;;4.75;3.10;;;;;;;;;;4935833;29;20122;-89
2022/06/11 03:43:53;;;;;;;9.18;3.22;;;;;;;;;;4935397;29;20070;-91
2022/06/11 03:46:20;;;;;;;6.13;3.35;;;;;;;;;;4935054;29;20027;-90
2022/06/11 03:48:47;;;;;;;5.63;3.30;;;;;;;;;;4935713;29;20055;-90
2022/06/11 03:51:13;;;;;;;6.75;3.13;;;;;;;;;;4937772;29;20106;-90
2022/06/11 03:53:40;;;;;;;6.10;3.08;;;;;;;;;;4951408;28;20039;-90
2022/06/11 03:56:07;;;;;;;5.00;2.80;;;;;;;;;;4936294;29;20027;-90
2022/06/11 03:58:34;;;;;;;7.55;3.38;;;;;;;;;;4936486;29;20034;-90
2022/06/11 04:01:16;;;;;;;7.15;2.88;;;;;;;;;;4936080;29;20046;-89
2022/06/11 04:03:48;;;;;;;7.85;3.03;;;;;;;;;;4936457;29;20350;-88
2022/06/11 04:06:15;;;;;;;4.60;2.65;;;;;;;;;;4951183;29;20083;-90
2022/06/11 04:08:41;;;;;;;7.85;3.13;;;;;;;;;;4950532;29;20027;-91
2022/06/11 04:11:08;;;;;;;6.18;3.17;;;;;;;;;;4976314;29;20031;-91
2022/06/11 04:13:35;;;;;;;4.63;2.88;;;;;;;;;;4977481;28;20031;-90
2022/06/11 04:16:02;;;;;;;4.35;3.10;;;;;;;;;;4977190;28;20082;-91
2022/06/11 04:18:36;;;;;;;5.55;3.03;;;;;;;;;;4961375;28;20130;-88
2022/06/11 04:21:04;;;;;;;6.20;3.05;;;;;;;;;;4938168;28;20031;-90
2022/06/11 04:23:30;;;;;;;6.80;3.20;;;;;;;;;;4934848;29;20020;-90
2022/06/11 04:26:01;;;;;;;9.02;2.95;;;;;;;;;;4936173;29;20019;-91
2022/06/11 04:28:29;;;;;;;8.10;3.83;;;;;;;;;;4936046;29;20510;-89
2022/06/11 04:30:56;;;;;;;10.55;3.47;;;;;;;;;;4935159;29;20067;-90
2022/06/11 04:33:22;;;;;;;3.90;3.08;;;;;;;;;;4935871;29;20102;-90
2022/06/11 04:35:48;;;;;;;6.35;2.97;;;;;;;;;;4934622;29;20031;-89
2022/06/11 04:38:14;;;;;;;6.32;3.05;;;;;;;;;;4935331;29;20035;-90
2022/06/11 04:40:40;;;;;;;5.18;3.05;;;;;;;;;;4934017;29;20046;-89
2022/06/11 04:43:06;;;;;;;5.10;2.72;;;;;;;;;;4934699;29;20104;-89
2022/06/11 04:45:32;;;;;;;5.65;3.10;;;;;;;;;;4935710;29;20074;-87
2022/06/11 04:47:58;;;;;;;12.77;7.03;;;;;;;;;;4934767;29;20137;-89
2022/06/11 04:50:24;;;;;;;5.20;3.03;;;;;;;;;;4935619;29;20173;-89
2022/06/11 04:52:50;;;;;;;7.22;3.30;;;;;;;;;;4935497;29;20036;-90
2022/06/11 04:55:17;;;;;;;10.80;3.08;;;;;;;;;;4935368;29;20038;-90
2022/06/11 04:57:43;;;;;;;11.75;3.42;;;;;;;;;;4935816;29;20514;-90
2022/06/11 05:00:11;;;;;;;6.68;3.20;;;;;;;;;;4942748;28;20062;-89
2022/06/11 05:02:37;;;;;;;7.78;2.85;;;;;;;;;;4935943;29;20035;-88
2022/06/11 05:05:03;;;;;;;11.15;6.10;;;;;;;;;;4935627;29;20028;-89
2022/06/11 05:07:29;;;;;;;13.68;5.43;;;;;;;;;;4935982;29;20657;-88
2022/06/11 05:09:56;;;;;;;5.53;3.17;;;;;;;;;;4935491;29;20490;-89
2022/06/11 05:12:22;;;;;;;6.88;3.33;;;;;;;;;;4934097;29;20417;-87
2022/06/11 05:14:48;;;;;;;10.13;3.00;;;;;;;;;;4934728;29;20034;-89
2022/06/11 05:17:14;;;;;;;5.22;3.30;;;;;;;;;;4935643;29;20024;-88
2022/06/11 05:19:40;;;;;;;6.00;2.97;;;;;;;;;;4943748;29;20078;-88
2022/06/11 05:22:06;;;;;;;6.40;3.35;;;;;;;;;;4954928;28;20051;-88
2022/06/11 05:24:32;;;;;;;7.00;2.88;;;;;;;;;;4955179;28;20075;-89
2022/06/11 05:27:00;;;;;;;12.80;6.72;;;;;;;;;;4954867;28;20358;-88
2022/06/11 05:29:34;;;;;;;10.07;4.75;;;;;;;;;;4953408;28;20023;-88
2022/06/11 05:32:01;;;;;;;4.68;3.00;;;;;;;;;;4952947;28;20031;-87
2022/06/11 05:34:28;;;;;;;8.32;3.22;;;;;;;;;;4954828;28;20031;-88
2022/06/11 05:36:55;;;;;;;9.60;4.03;;;;;;;;;;4952815;28;20485;-87
2022/06/11 05:39:21;;;;;;;6.07;4.00;;;;;;;;;;4954486;28;20122;-86
2022/06/11 05:41:47;;;;;;;5.13;3.05;;;;;;;;;;4953152;28;20448;-87
2022/06/11 05:44:13;;;;;;;9.02;3.25;;;;;;;;;;4953160;28;20090;-88
2022/06/11 05:46:39;;;;;;;7.22;3.42;;;;;;;;;;4954089;28;20057;-88
2022/06/11 05:49:09;;;;;;;5.80;3.40;;;;;;;;;;4954211;28;20090;-88
2022/06/11 05:51:37;;;;;;;4.80;2.90;;;;;;;;;;4954067;28;20038;-89
2022/06/11 05:54:06;;;;;;;10.55;3.25;;;;;;;;;;4953476;28;20026;-88
2022/06/11 05:56:32;;;;;;;7.30;3.58;;;;;;;;;;4953651;28;20102;-89
2022/06/11 05:59:00;;;;;;;8.30;3.13;;;;;;;;;;4955436;28;20034;-89
2022/06/11 06:01:28;;;;;;;5.38;3.25;;;;;;;;;;4956190;28;20035;-88
2022/06/11 06:03:54;;;;;;;5.82;3.08;;;;;;;;;;4957566;28;20338;-89
2022/06/11 06:06:20;;;;;;;7.75;3.63;;;;;;;;;;4957123;28;20029;-89
2022/06/11 06:08:47;;;;;;;4.43;2.80;;;;;;;;;;4956032;28;20111;-90
2022/06/11 06:11:13;;;;;;;4.43;2.40;;;;;;;;;;4956587;28;20031;-89
2022/06/11 06:13:48;;;;;;;10.48;2.90;;;;;;;;;;4955138;28;20024;-89
2022/06/11 06:16:18;;;;;;;9.55;2.95;;;;;;;;;;4955867;28;20031;-89
2022/06/11 06:18:45;;;;;;;10.13;3.10;;;;;;;;;;4957240;28;20114;-88
2022/06/11 06:21:11;;;;;;;12.13;4.78;;;;;;;;;;4955678;28;20408;-89
2022/06/11 06:23:40;;;;;;;8.93;3.70;;;;;;;;;;4958229;28;20023;-89
2022/06/11 06:26:06;;;;;;;9.77;2.88;;;;;;;;;;4957234;28;20078;-88
2022/06/11 06:28:34;;;;;;;5.25;2.83;;;;;;;;;;4957941;28;20023;-89
2022/06/11 06:31:00;;;;;;;7.55;2.60;;;;;;;;;;4958905;28;20039;-89
2022/06/11 06:33:27;;;;;;;8.02;2.67;;;;;;;;;;4959016;28;20065;-88
2022/06/11 06:35:53;;;;;;;8.10;2.90;;;;;;;;;;4959508;28;20547;-90
2022/06/11 06:38:20;;;;;;;6.75;2.67;;;;;;;;;;4960819;28;20417;-90
2022/06/11 06:40:46;;;;;;;7.63;3.47;;;;;;;;;;4958740;28;20027;-89
2022/06/11 06:43:48;;;;;;;5.88;2.70;;;;;;;;;;4957195;28;20059;-88
2022/06/11 06:46:14;;;;;;;9.80;2.58;;;;;;;;;;4912728;29;20035;-87
2022/06/11 06:48:43;;;;;;;11.30;2.65;;;;;;;;;;4937901;29;20020;-88
2022/06/11 06:51:10;;;;;;;9.15;2.42;;;;;;;;;;4937356;29;20062;-88
2022/06/11 06:53:37;;;;;;;6.53;2.47;;;;;;;;;;4937440;29;20035;-89
2022/06/11 06:56:40;;;;;;;5.43;2.10;;;;;;;;;;4937139;29;20028;-88
2022/06/11 06:59:06;;;;;;;4.85;2.20;;;;;;;;;;4937641;29;20073;-88
2022/06/11 07:01:33;;;;;;;4.90;2.20;;;;;;;;;;4944597;29;20398;-88
2022/06/11 07:03:59;;;;;;;7.20;2.20;;;;;;;;;;4956784;28;20167;-89
2022/06/11 07:06:26;;;;;;;9.05;2.10;;;;;;;;;;4952012;28;20486;-89
2022/06/11 07:09:04;;;;;;;6.93;2.10;;;;;;;;;;4936995;29;20039;-89
2022/06/11 07:11:30;;;;;;;5.05;2.03;;;;;;;;;;4936448;29;20036;-89
2022/06/11 07:14:02;;;;;;;4.38;1.90;;;;;;;;;;4949052;29;20023;-88
2022/06/11 07:16:32;;;;;;;7.97;2.20;;;;;;;;;;4943742;28;20023;-89
2022/06/11 07:19:00;;;;;;;4.10;1.58;;;;;;;;;;4946232;29;20026;-87
2022/06/11 07:21:31;;;;;;;8.60;2.38;;;;;;;;;;4955959;28;20019;-88
2022/06/11 07:24:02;;;;;;;7.22;1.60;;;;;;;;;;4954598;28;20494;-89
2022/06/11 07:26:36;;;;;;;5.85;1.65;;;;;;;;;;4956000;28;20027;-88
2022/06/11 07:29:09;;;;;;;3.63;1.10;;;;;;;;;;4954763;28;20028;-87
2022/06/11 07:31:35;;;;;;;5.32;1.40;;;;;;;;;;4954636;28;20110;-88
2022/06/11 07:34:01;;;;;;;7.03;1.40;;;;;;;;;;4955080;28;20481;-87
2022/06/11 07:36:27;;;;;;;5.78;1.42;;;;;;;;;;4954653;28;20019;-87
2022/06/11 07:38:54;;;;;;;3.88;1.55;;;;;;;;;;4954624;28;20028;-87
2022/06/11 07:41:20;;;;;;;4.40;1.40;;;;;;;;;;4954178;28;20485;-89
2022/06/11 07:43:46;;;;;;;4.70;1.45;;;;;;;;;;4954552;28;20027;-89
2022/06/11 07:46:12;;;;;;;6.28;1.83;;;;;;;;;;4955596;28;20086;-89
2022/06/11 07:48:38;;;;;;;8.20;1.48;;;;;;;;;;4955879;28;20024;-89
2022/06/11 07:51:04;;;;;;;9.48;1.70;;;;;;;;;;4954037;28;20055;-89
2022/06/11 07:53:30;;;;;;;9.15;1.60;;;;;;;;;;4954190;28;20035;-86
2022/06/11 07:55:56;;;;;;;7.03;1.80;;;;;;;;;;4955178;28;20069;-88
2022/06/11 07:58:25;;;;;;;3.45;1.15;;;;;;;;;;4954419;28;20422;-88
2022/06/11 08:00:53;;;;;;;6.85;2.40;;;;;;;;;;4953758;28;20170;-88
2022/06/11 08:03:19;;;;;;;7.65;1.08;;;;;;;;;;4953493;28;20031;-89
2022/06/11 08:05:45;;;;;;;4.57;1.55;;;;;;;;;;4952601;28;20028;-90
2022/06/11 08:08:12;;;;;;;5.40;1.20;;;;;;;;;;4935739;29;20024;-88
2022/06/11 08:10:39;;;;;;;6.15;1.42;;;;;;;;;;4934724;29;20035;-88
2022/06/11 08:13:05;;;;;;;10.13;1.63;;;;;;;;;;4935057;29;20023;-88
2022/06/11 08:15:32;;;;;;;8.57;1.17;;;;;;;;;;4939729;28;20035;-88
2022/06/11 08:17:58;;;;;;;6.28;1.40;;;;;;;;;;4950353;29;20517;-88
2022/06/11 08:20:29;;;;;;;7.80;1.30;;;;;;;;;;4952265;29;20031;-87
2022/06/11 08:22:55;;;;;;;5.45;1.42;;;;;;;;;;4948800;28;20032;-89
2022/06/11 08:25:22;;;;;;;5.03;1.50;;;;;;;;;;4946462;29;20055;-87
2022/06/11 08:27:49;;;;;;;6.15;1.73;;;;;;;;;;4934902;29;20106;-89
2022/06/11 08:30:18;;;;;;;2.85;1.20;;;;;;;;;;4934106;29;20478;-88
2022/06/11 08:32:44;;;;;;;7.65;1.30;;;;;;;;;;4935886;29;20087;-88
2022/06/11 08:35:11;;;;;;;3.92;1.10;;;;;;;;;;4935741;29;20034;-88
2022/06/11 08:37:37;;;;;;;6.60;1.60;;;;;;;;;;4934137;29;20031;-87
2022/06/11 08:40:08;;;;;;;6.50;1.23;;;;;;;;;;4934343;29;20031;-89
2022/06/11 08:42:36;;;;;;;7.95;1.85;;;;;;;;;;4936716;29;20051;-89
2022/06/11 08:45:26;;;;;;;7.18;1.40;;;;;;;;;;4946158;29;20035;-89
2022/06/11 08:48:01;;;;;;;6.25;1.15;;;;;;;;;;4954645;28;20114;-89
2022/06/11 08:50:40;;;;;;;5.28;1.33;;;;;;;;;;4953611;28;20082;-85
2022/06/11 08:53:06;;;;;;;6.45;1.73;;;;;;;;;;4936205;28;20044;-84
2022/06/11 08:55:35;;;;;;;6.55;1.48;;;;;;;;;;4935737;29;20028;-87
2022/06/11 08:58:40;;;;;;;7.38;1.20;;;;;;;;;;4934187;29;20495;-86
2022/06/11 09:01:18;;;;;;;11.20;1.80;;;;;;;;;;4913632;29;20028;-87
2022/06/11 09:03:44;;;;;;;6.25;1.42;;;;;;;;;;4914205;29;20035;-86
2022/06/11 09:06:10;;;;;;;9.40;1.45;;;;;;;;;;4936791;29;20043;-83
2022/06/11 09:08:39;;;;;;;3.47;1.00;;;;;;;;;;4954107;28;20039;-87
2022/06/11 09:11:19;;;;;;;6.28;1.30;;;;;;;;;;4953458;28;20035;-84
2022/06/11 09:14:04;;;;;;;5.38;1.23;;;;;;;;;;4953719;28;20027;-86
2022/06/11 09:16:33;;;;;;;10.60;1.52;;;;;;;;;;4942759;28;20042;-85
2022/06/11 09:19:19;;;;;;;5.22;1.77;;;;;;;;;;4938337;29;20027;-86
2022/06/11 09:21:45;;;;;;;6.03;1.55;;;;;;;;;;4954665;28;20047;-89
2022/06/11 09:24:17;;;;;;;5.55;1.20;;;;;;;;;;4953533;29;20104;-87
2022/06/11 09:26:49;;;;;;;4.40;1.30;;;;;;;;;;4952299;28;20034;-86
2022/06/11 09:29:33;;;;;;;3.05;1.30;;;;;;;;;;4951885;28;20102;-87
2022/06/11 09:31:59;;;;;;;4.40;1.25;;;;;;;;;;4953486;28;20098;-87
2022/06/11 09:34:36;;;;;;;3.58;1.05;;;;;;;;;;4955045;28;20449;-85
2022/06/11 09:37:08;;;;;;;5.72;1.25;;;;;;;;;;4936940;28;20024;-85
2022/06/11 09:39:36;;;;;;;3.55;1.15;;;;;;;;;;4938455;29;20533;-87
2022/06/11 09:42:15;;;;;;;7.15;1.40;;;;;;;;;;4936929;29;20553;-87
2022/06/11 09:44:53;;;;;;;5.15;1.30;;;;;;;;;;4941231;29;20059;-87
2022/06/11 09:47:19;;;;;;;4.45;1.00;;;;;;;;;;4936966;29;20668;-86
2022/06/11 09:49:54;;;;;;;5.03;1.02;;;;;;;;;;4937700;29;20115;-87
2022/06/11 09:52:39;;;;;;;6.72;1.25;;;;;;;;;;4946059;29;20152;-87
2022/06/11 09:55:08;;;;;;;4.78;2.05;;;;;;;;;;4951643;29;20062;-89
2022/06/11 09:57:40;;;;;;;2.83;1.20;;;;;;;;;;4970757;29;20020;-89
2022/06/11 10:00:07;;;;;;;6.57;1.50;;;;;;;;;;4957685;29;20039;-87
2022/06/11 10:02:47;;;;;;;4.78;1.63;;;;;;;;;;4970182;29;20027;-88
2022/06/11 10:05:20;;;;;;;4.97;1.47;;;;;;;;;;4941326;29;20493;-87
2022/06/11 10:07:55;;;;;;;5.25;1.23;;;;;;;;;;4939602;29;20031;-87
2022/06/11 10:10:31;;;;;;;4.70;1.45;;;;;;;;;;4937676;29;20047;-86
2022/06/11 10:13:01;;;;;;;3.67;1.20;;;;;;;;;;4940747;29;20024;-87
2022/06/11 10:15:34;;;;;;;6.95;1.70;;;;;;;;;;4938934;29;20110;-88
2022/06/11 10:18:09;;;;;;;2.58;1.08;;;;;;;;;;4936853;29;20034;-88
2022/06/11 10:20:40;;;;;;;7.55;1.63;;;;;;;;;;4954643;29;20047;-87
2022/06/11 10:23:09;;;;;;;4.63;1.10;;;;;;;;;;4955897;28;20478;-87
2022/06/11 10:25:51;;;;;;;2.70;1.13;;;;;;;;;;4955717;28;20043;-87
2022/06/11 10:28:23;;;;;;;5.90;1.40;;;;;;;;;;4956068;28;20474;-87
2022/06/11 10:31:01;;;;;;;4.43;1.10;;;;;;;;;;4957556;28;20031;-87
2022/06/11 10:33:30;;;;;;;7.25;1.77;;;;;;;;;;4956656;28;20067;-87
2022/06/11 10:36:15;;;;;;;3.45;1.33;;;;;;;;;;4955151;28;20514;-87
2022/06/11 10:38:41;;;;;;;3.40;1.20;;;;;;;;;;4955606;28;20122;-86
2022/06/11 10:41:09;;;;;;;5.28;1.52;;;;;;;;;;4951905;28;20031;-87
2022/06/11 10:43:46;;;;;;;4.85;1.40;;;;;;;;;;4938177;29;20052;-87
2022/06/11 10:46:12;;;;;;;4.32;1.30;;;;;;;;;;4935427;29;20024;-86
2022/06/11 10:48:39;;;;;;;5.78;1.30;;;;;;;;;;4951153;29;20463;-87
2022/06/11 10:51:15;;;;;;;10.70;1.33;;;;;;;;;;4946800;28;20383;-87
2022/06/11 10:53:58;;;;;;;5.18;2.05;;;;;;;;;;4937935;29;20038;-87
2022/06/11 10:56:35;;;;;;;4.15;1.25;;;;;;;;;;4940239;29;20098;-87
2022/06/11 10:59:20;;;;;;;3.03;1.10;;;;;;;;;;4955163;28;20031;-87
2022/06/11 11:01:48;;;;;;;3.35;1.20;;;;;;;;;;4945054;29;20032;-86
2022/06/11 11:04:14;;;;;;;4.18;1.15;;;;;;;;;;4955329;28;20023;-86
2022/06/11 11:06:41;;;;;;;3.53;1.45;;;;;;;;;;4950964;28;20032;-87
2022/06/11 11:09:10;;;;;;;4.45;1.65;;;;;;;;;;4948427;29;20549;-86
2022/06/11 11:11:51;;;;;;;7.68;2.00;;;;;;;;;;4957902;28;20038;-86
2022/06/11 11:14:18;;;;;;;5.18;1.45;;;;;;;;;;4945989;29;20031;-87
2022/06/11 11:16:48;;;;;;;3.42;1.35;;;;;;;;;;4955611;28;20082;-87
2022/06/11 11:19:21;;;;;;;3.75;1.20;;;;;;;;;;4954242;28;20017;-88
2022/06/11 11:21:59;;;;;;;3.03;1.08;;;;;;;;;;4953944;28;20103;-88
2022/06/11 11:24:30;;;;;;;4.05;1.23;;;;;;;;;;4953787;28;20042;-87
2022/06/11 11:27:00;;;;;;;8.32;1.30;;;;;;;;;;4954352;28;20023;-87
2022/06/11 11:29:34;;;;;;;4.15;1.23;;;;;;;;;;4950715;28;20458;-89
2022/06/11 11:32:04;;;;;;;4.38;1.20;;;;;;;;;;4949012;29;20090;-87
2022/06/11 11:34:31;;;;;;;3.50;1.15;;;;;;;;;;4945872;29;20194;-88
2022/06/11 11:36:59;;;;;;;2.25;1.08;;;;;;;;;;4942144;29;20039;-85
2022/06/11 11:39:27;;;;;;;2.85;1.27;;;;;;;;;;4947960;29;20105;-85
2022/06/11 11:42:03;;;;;;;3.10;1.30;;;;;;;;;;4953521;28;20078;-86
2022/06/11 11:44:34;;;;;;;4.07;1.10;;;;;;;;;;4953946;28;20114;-87
2022/06/11 11:47:01;;;;;;;4.50;1.42;;;;;;;;;;4953685;28;20066;-86
2022/06/11 11:49:29;;;;;;;4.25;0.90;;;;;;;;;;4942736;28;20031;-87
2022/06/11 11:52:01;;;;;;;3.00;1.23;;;;;;;;;;4940107;29;20019;-86
2022/06/11 11:54:28;;;;;;;2.03;1.10;;;;;;;;;;4955028;28;20028;-87
2022/06/11 11:56:53;;;;;;;5.82;1.10;;;;;;;;;;4943903;28;20028;-88
2022/06/11 11:59:25;;;;;;;2.70;1.20;;;;;;;;;;4934048;29;20034;-87
2022/06/11 12:01:54;;;;;;;1.48;0.90;;;;;;;;;;4935546;29;20034;-87
2022/06/11 12:04:20;;;;;;;3.90;0.90;;;;;;;;;;4934546;29;20027;-87
2022/06/11 12:06:53;;;;;;;4.38;0.80;;;;;;;;;;4935809;29;20020;-87
2022/06/11 12:09:27;;;;;;;3.15;0.95;;;;;;;;;;4952612;29;20034;-88
2022/06/11 12:12:12;;;;;;;6.13;1.42;;;;;;;;;;4953735;28;20019;-89
2022/06/11 12:14:46;;;;;;;3.13;0.90;;;;;;;;;;4955042;28;20039;-88
2022/06/11 12:17:33;;;;;;;3.67;1.10;;;;;;;;;;4951398;28;20023;-88
2022/06/11 12:20:07;;;;;;;2.28;0.95;;;;;;;;;;4937594;29;20127;-87
2022/06/11 12:22:53;;;;;;;3.88;1.20;;;;;;;;;;4953406;28;20675;-89
2022/06/11 12:25:27;;;;;;;2.22;0.80;;;;;;;;;;4954325;28;20027;-88
2022/06/11 12:27:54;;;;;;;4.28;1.17;;;;;;;;;;4952629;28;20023;-88
2022/06/11 12:30:25;;;;;;;4.35;1.10;;;;;;;;;;4954203;28;20473;-88
2022/06/11 12:33:13;;;;;;;5.80;0.93;;;;;;;;;;4953355;28;20038;-89
2022/06/11 12:35:57;;;;;;;3.47;1.08;;;;;;;;;;4955451;28;20034;-88
2022/06/11 12:38:26;;;;;;;3.28;0.90;;;;;;;;;;4953494;28;20038;-86
2022/06/11 12:41:01;;;;;;;3.60;0.93;;;;;;;;;;4943842;28;20124;-87
2022/06/11 12:43:39;;;;;;;2.88;0.98;;;;;;;;;;4935072;29;20099;-87
2022/06/11 12:46:12;;;;;;;5.70;1.60;;;;;;;;;;4934975;29;20281;-86
2022/06/11 12:48:38;;;;;;;3.58;1.00;;;;;;;;;;4934513;29;20054;-87
2022/06/11 12:51:18;;;;;;;2.88;1.05;;;;;;;;;;4939619;29;20045;-87
2022/06/11 12:53:56;;;;;;;2.67;0.90;;;;;;;;;;4952446;28;20042;-87
2022/06/11 12:56:42;;;;;;;2.72;1.05;;;;;;;;;;4952290;28;20577;-87
2022/06/11 12:59:18;;;;;;;8.00;1.40;;;;;;;;;;4953199;28;20396;-88
2022/06/11 13:01:48;;;;;;;3.15;1.00;;;;;;;;;;4954065;28;20063;-87
2022/06/11 13:04:23;;;;;;;2.42;0.88;;;;;;;;;;4954252;28;20023;-89
2022/06/11 13:06:55;;;;;;;1.63;0.80;;;;;;;;;;4953886;28;20532;-88
2022/06/11 13:09:47;;;;;;;2.60;0.80;;;;;;;;;;4957932;28;20023;-88
2022/06/11 13:12:17;;;;;;;2.63;0.75;;;;;;;;;;4959029;28;20114;-88
2022/06/11 13:15:02;;;;;;;3.87;0.80;;;;;;;;;;4960517;28;20019;-87
2022/06/11 13:17:28;;;;;;;3.58;0.70;;;;;;;;;;4956824;28;20102;-88
2022/06/11 13:20:05;;;;;;;2.90;0.90;;;;;;;;;;4959014;28;20027;-87
2022/06/11 13:22:40;;;;;;;2.63;1.17;;;;;;;;;;4959408;28;20034;-87
2022/06/11 13:25:22;;;;;;;2.25;0.82;;;;;;;;;;4959973;28;20015;-88
2022/06/11 13:27:48;;;;;;;2.42;0.73;;;;;;;;;;4958558;28;20030;-88
2022/06/11 13:30:22;;;;;;;1.65;0.93;;;;;;;;;;4960176;28;20023;-88
2022/06/11 13:32:51;;;;;;;4.05;0.95;;;;;;;;;;4959530;28;20028;-88
2022/06/11 13:35:31;;;;;;;3.20;1.02;;;;;;;;;;4959920;28;20035;-90
2022/06/11 13:38:17;;;;;;;3.92;0.95;;;;;;;;;;4958924;28;20053;-87
2022/06/11 13:41:02;;;;;;;3.78;1.05;;;;;;;;;;4960186;28;20023;-86
2022/06/11 13:43:34;;;;;;;3.67;0.82;;;;;;;;;;4959204;28;20035;-88
2022/06/11 13:46:10;;;;;;;4.75;1.35;;;;;;;;;;4959611;28;20115;-85
2022/06/11 13:48:43;;;;;;;3.25;1.35;;;;;;;;;;4959596;28;20059;-88
2022/06/11 13:51:29;;;;;;;3.50;1.25;;;;;;;;;;4958531;28;20038;-88
2022/06/11 13:57:18;;;;;;;5.78;0.70;;;;;;;;;;4959815;29;20053;-88
2022/06/11 13:59:44;;;;;;;2.55;0.70;;;;;;;;;;4956743;28;20035;-87
2022/06/11 14:02:13;;;;;;;2.08;0.82;;;;;;;;;;4938994;29;20509;-88
2022/06/11 14:04:42;;;;;;;4.03;1.15;;;;;;;;;;4939723;29;20024;-86
2022/06/11 14:07:10;;;;;;;3.22;1.00;;;;;;;;;;4939494;29;20030;-88
2022/06/11 14:12:42;;;;;;;2.60;1.33;;;;;;;;;;4940882;29;20042;-87
2022/06/11 14:15:25;;;;;;;4.53;1.20;;;;;;;;;;4938168;29;20035;-87
2022/06/11 14:17:53;;;;;;;3.08;0.88;;;;;;;;;;4939823;29;20489;-87
2022/06/11 14:20:22;;;;;;;1.98;0.77;;;;;;;;;;4949462;28;20112;-87
2022/06/11 14:22:50;;;;;;;3.13;0.90;;;;;;;;;;4952719;28;20026;-88
2022/06/11 14:25:36;;;;;;;5.70;1.20;;;;;;;;;;4938058;29;20036;-88
2022/06/11 14:28:25;;;;;;;5.43;1.17;;;;;;;;;;4936647;29;20187;-88
2022/06/11 14:30:54;;;;;;;4.35;1.60;;;;;;;;;;4951022;29;20097;-88
2022/06/11 14:33:22;;;;;;;6.47;1.25;;;;;;;;;;4956766;28;20042;-88
2022/06/11 14:35:52;;;;;;;3.83;1.00;;;;;;;;;;4955669;28;20024;-88
2022/06/11 14:38:18;;;;;;;2.33;0.80;;;;;;;;;;4955412;28;20067;-87
2022/06/11 14:40:44;;;;;;;2.63;0.80;;;;;;;;;;4955234;28;20106;-88
2022/06/11 14:43:12;;;;;;;4.20;1.02;;;;;;;;;;4956788;28;20532;-87
2022/06/11 14:45:38;;;;;;;2.83;1.02;;;;;;;;;;4956822;28;20027;-89
2022/06/11 14:48:09;;;;;;;5.38;1.10;;;;;;;;;;4954869;28;20027;-87
2022/06/11 14:50:37;;;;;;;3.95;1.70;;;;;;;;;;4957079;28;20035;-88
2022/06/11 18:26:18;;;;;;;10.00;3.45;;;;;;;;;;858372;23;21509;-90
2022/06/11 18:32:09;;;;;;;9.18;3.20;;;;;;;;;;4956631;29;20046;-90
2022/06/11 18:34:36;;;;;;;9.25;3.40;;;;;;;;;;4968984;28;20031;-89
2022/06/11 18:37:11;;;;;;;8.88;3.70;;;;;;;;;;4970005;28;20103;-89
2022/06/11 18:39:40;;;;;;;4.07;2.83;;;;;;;;;;4956862;28;20032;-90
2022/06/11 18:42:11;;;;;;;6.32;2.00;;;;;;;;;;4964152;28;20119;-89
2022/06/11 18:44:40;;;;;;;;;;;;;;;;;;4938048;29;20052;-90
2022/06/11 18:47:14;;;;;;;6.45;3.25;;;;;;;;;;4937555;28;19994;-89